Главная страница
METAR-TAF:

METAR-TAF

Аэропорты :

Галифакс, Новая Шотландия, Канада

широта: 44-53N, долгота: 063-30W, высота над уровнем моря: 145 м

Текущие метеонаблюдения

Эта сводка был подготовлена 1 час и 7 минут назад, в 12:00 UTC
Ветер 6 Узел от северо-западный
Температура 5°C
Влажность 52%
Давление 1027 hPa
Видимость: 24.1 км
небольшая облачность на высоте 28000 фута

METAR: CYHZ 231200Z 31006KT 15SM FEW280 05/M04 A3034 RMK CI1 SLP282

Время: 10:07 (13:07 UTC)

Прогноз

Эта сводка был подготовлена 1 час и 29 минут назад, в 11:38 UTC
Прогноз действительный с 23-го 12 UTC до 24-го 12 UTC
Ветер 8 Узел от северо-западный
Видимость: 10 км
ясное небо
изменения
С 24-го 00 UTC до 24-го 02 UTC
Ветер 5 Узел от юго-западный

TAF: CYHZ 231138Z 2312/2412 31008KT P6SM SKC BECMG 2400/2402 23005KT RMK NXT FCST BY 231500Z

Метеонаблюдения и прогнозы для более 4000 аэропортов (сводки METAR и TAF).

Имеющиеся станции представлены на карте желтыми и красными точками.

Чтобы увидеть название станции, наведите на нее мышь.

Затем щелкните, чтобы увидеть метеонаблюдения и метеопрогнозы.

Управление картой: чтобы увеличить масштаб, щелкните зеленые кнопки с черным крестиком; чтобы уменьшить масштаб, щелкните зеленую кнопку с тире; для просмотра соседних карт щелкайте зеленые стрелки.


METAR-TAF: